WXM80 ListenWXM80 Stop

You find our weather info also at:

UK Metoffice

WeatherCloud

Weather Underground

Northeastern Weather Network

AWEKAS

Citizen Weather Observer Program (CWOP)

HAMweather, WeatherForYou, PWS Weather


Weather Underground History page Text

Daily Summary for May 10, 2016 Units:  English    Metric   Both
« Previous Day
Next Day »
Daily Weekly Monthly Yearly Custom
  High: Low: Average:
Temperature: 69.8 °F 47.6 °F 57.8 °F
Dew Point: 45.2 °F 30.1 °F 37.8 °F
Humidity: 74 % 24 % 49 %
Wind Speed: 8.3 mph 0.0 mph 2.8 mph
Wind Gust: 12.7 mph - -
Wind:- - SSE
Pressure: 30.25 in 30.11 in -
Precipitation: 0.00 in    
Historical Graphs
 
 
Tabular Data for May 10, 2016
Time Temperature Dew Point Pressure Wind Wind Speed Wind Gust Humidity Rainfall Rate (Hourly)
00:01 54.4 °F 43.3 °F 30.12 in North 4.6 mph 6.0 mph 66 % 0.00 in
00:06 54.1 °F 42.2 °F 30.12 in North 4.3 mph 7.0 mph 64 % 0.00 in
00:11 53.9 °F 41.2 °F 30.11 in NNE 3.9 mph 5.8 mph 62 % 0.00 in
00:16 53.7 °F 40.6 °F 30.11 in NNE 3.8 mph 6.9 mph 61 % 0.00 in
00:21 53.7 °F 41.0 °F 30.11 in NNE 1.9 mph 3.0 mph 62 % 0.00 in
00:26 53.6 °F 41.7 °F 30.12 in NE 1.1 mph 3.5 mph 64 % 0.00 in
00:31 53.5 °F 42.0 °F 30.12 in North 3.4 mph 5.0 mph 65 % 0.00 in
00:36 53.3 °F 39.3 °F 30.12 in North 6.3 mph 9.2 mph 59 % 0.00 in
00:41 53.2 °F 37.4 °F 30.13 in NE 5.3 mph 9.2 mph 55 % 0.00 in
00:46 53.2 °F 36.0 °F 30.13 in NE 5.9 mph 10.4 mph 52 % 0.00 in
00:52 53.3 °F 36.1 °F 30.13 in NE 5.9 mph 7.0 mph 52 % 0.00 in
00:57 53.3 °F 35.6 °F 30.13 in NNE 6.7 mph 12.7 mph 51 % 0.00 in
01:02 53.4 °F 36.7 °F 30.14 in NNE 4.5 mph 9.2 mph 53 % 0.00 in
01:07 53.3 °F 36.1 °F 30.14 in NNE 5.2 mph 8.1 mph 52 % 0.00 in
01:12 53.3 °F 37.1 °F 30.14 in NNE 3.9 mph 6.0 mph 54 % 0.00 in
01:17 53.1 °F 36.4 °F 30.15 in NNE 4.2 mph 8.0 mph 53 % 0.00 in
01:22 53.0 °F 35.3 °F 30.14 in NNE 6.7 mph 10.4 mph 51 % 0.00 in
01:27 52.9 °F 33.7 °F 30.14 in NNE 8.3 mph 12.7 mph 48 % 0.00 in
01:32 52.9 °F 34.8 °F 30.14 in NNE 5.9 mph 9.2 mph 50 % 0.00 in
01:37 52.8 °F 35.2 °F 30.14 in North 5.1 mph 7.0 mph 51 % 0.00 in
01:43 52.7 °F 35.6 °F 30.14 in NNE 5.6 mph 8.1 mph 52 % 0.00 in
01:48 52.6 °F 35.9 °F 30.15 in NNE 4.8 mph 6.9 mph 53 % 0.00 in
01:53 52.5 °F 36.3 °F 30.15 in North 4.6 mph 6.9 mph 54 % 0.00 in
01:58 52.3 °F 36.1 °F 30.14 in North 3.8 mph 9.2 mph 54 % 0.00 in
02:03 52.1 °F 36.4 °F 30.14 in NE 1.3 mph 3.5 mph 55 % 0.00 in
02:08 52.1 °F 37.8 °F 30.14 in North 1.0 mph 2.3 mph 58 % 0.00 in
02:13 51.9 °F 38.0 °F 30.14 in NNE 3.6 mph 9.0 mph 59 % 0.00 in
02:18 51.7 °F 36.5 °F 30.14 in North 5.5 mph 8.1 mph 56 % 0.00 in
02:23 51.6 °F 35.5 °F 30.14 in NNE 5.0 mph 6.9 mph 54 % 0.00 in
02:28 51.5 °F 36.3 °F 30.14 in NNE 4.5 mph 4.6 mph 56 % 0.00 in
02:34 51.4 °F 37.1 °F 30.14 in NNE 3.6 mph 4.6 mph 58 % 0.00 in
02:39 51.4 °F 38.0 °F 30.14 in NNE 1.0 mph 3.5 mph 60 % 0.00 in
02:44 51.3 °F 38.7 °F 30.15 in ENE 1.3 mph 3.5 mph 62 % 0.00 in
02:49 51.3 °F 39.1 °F 30.14 in ENE 0.5 mph 2.3 mph 63 % 0.00 in
02:54 51.1 °F 39.3 °F 30.15 in NNE 1.0 mph 3.5 mph 64 % 0.00 in
02:59 50.9 °F 38.3 °F 30.15 in North 1.0 mph 3.0 mph 62 % 0.00 in
03:04 50.7 °F 39.0 °F 30.15 in NNE 1.7 mph 3.5 mph 64 % 0.00 in
03:09 50.5 °F 39.2 °F 30.15 in NNE 0.9 mph 3.5 mph 65 % 0.00 in
03:14 50.3 °F 39.0 °F 30.15 in NNE 0.5 mph 2.3 mph 65 % 0.00 in
03:20 50.2 °F 39.7 °F 30.15 in NNE 1.1 mph 2.3 mph 67 % 0.00 in
03:25 50.1 °F 40.3 °F 30.15 in NNE 2.1 mph 2.3 mph 69 % 0.00 in
03:30 49.9 °F 40.1 °F 30.15 in NNE 1.3 mph 3.5 mph 69 % 0.00 in
03:35 49.9 °F 40.5 °F 30.16 in North 2.6 mph 3.5 mph 70 % 0.00 in
03:40 49.7 °F 40.3 °F 30.16 in NNE 1.2 mph 3.5 mph 70 % 0.00 in
03:45 49.6 °F 39.5 °F 30.17 in North 2.4 mph 3.5 mph 68 % 0.00 in
03:47 49.6 °F 39.5 °F 30.16 in North 1.4 mph 3.5 mph 68 % 0.00 in
03:52 49.4 °F 38.9 °F 30.17 in NNE 2.2 mph 3.5 mph 67 % 0.00 in
03:57 49.2 °F 37.9 °F 30.17 in NNE 2.5 mph 4.6 mph 65 % 0.00 in
04:02 49.1 °F 37.4 °F 30.17 in NNE 3.0 mph 4.0 mph 64 % 0.00 in
04:07 49.0 °F 36.9 °F 30.17 in NNE 3.8 mph 4.6 mph 63 % 0.00 in
04:12 48.9 °F 36.4 °F 30.17 in NNE 3.5 mph 6.0 mph 62 % 0.00 in
04:17 48.8 °F 36.4 °F 30.17 in NNE 1.9 mph 3.5 mph 62 % 0.00 in
04:22 48.7 °F 35.8 °F 30.17 in NNE 3.1 mph 5.0 mph 61 % 0.00 in
04:27 48.7 °F 35.8 °F 30.17 in North 2.6 mph 4.0 mph 61 % 0.00 in
04:32 48.6 °F 35.7 °F 30.17 in NNE 2.1 mph 4.6 mph 61 % 0.00 in
04:38 48.6 °F 36.2 °F 30.17 in NNE 2.0 mph 3.0 mph 62 % 0.00 in
04:43 48.6 °F 36.6 °F 30.17 in North 2.6 mph 4.6 mph 63 % 0.00 in
04:48 48.5 °F 36.1 °F 30.17 in North 1.0 mph 4.6 mph 62 % 0.00 in
04:53 48.5 °F 36.1 °F 30.17 in NNE 3.6 mph 6.0 mph 62 % 0.00 in
04:58 48.3 °F 35.5 °F 30.18 in NNE 2.6 mph 3.5 mph 61 % 0.00 in
05:08 48.2 °F 35.8 °F 30.18 in NNE 3.0 mph 5.0 mph 62 % 0.00 in
05:13 48.1 °F 34.4 °F 30.18 in NNE 3.5 mph 5.0 mph 59 % 0.00 in
05:18 48.0 °F 34.3 °F 30.18 in NNE 3.7 mph 4.6 mph 59 % 0.00 in
05:29 47.9 °F 35.1 °F 30.18 in NNE 3.1 mph 3.1 mph 61 % 0.00 in
05:34 47.8 °F 34.6 °F 30.18 in North 3.6 mph 5.8 mph 60 % 0.00 in
05:39 47.8 °F 34.6 °F 30.18 in NNE 1.6 mph 3.5 mph 60 % 0.00 in
05:44 47.7 °F 34.5 °F 30.19 in NNE 2.4 mph 4.6 mph 60 % 0.00 in
05:49 47.7 °F 34.9 °F 30.19 in North 2.0 mph 3.5 mph 61 % 0.00 in
05:54 47.6 °F 34.8 °F 30.20 in NNE 2.4 mph 3.5 mph 61 % 0.00 in
05:59 47.6 °F 34.8 °F 30.20 in NNE 3.5 mph 4.6 mph 61 % 0.00 in
06:04 47.6 °F 34.8 °F 30.20 in North 2.0 mph 4.6 mph 61 % 0.00 in
06:09 47.6 °F 34.8 °F 30.20 in NE 0.1 mph 1.2 mph 61 % 0.00 in
06:14 47.7 °F 35.3 °F 30.21 in Calm   1.2 mph 62 % 0.00 in
06:20 47.8 °F 36.2 °F 30.21 in North 2.4 mph 3.5 mph 64 % 0.00 in
06:25 48.0 °F 35.6 °F 30.21 in NNE 3.3 mph 4.6 mph 62 % 0.00 in
06:30 48.3 °F 35.0 °F 30.21 in NNE 1.0 mph 3.5 mph 60 % 0.00 in
06:35 48.7 °F 35.8 °F 30.21 in NNE 2.4 mph 4.6 mph 61 % 0.00 in
06:40 49.1 °F 36.6 °F 30.21 in NNE 0.5 mph 2.3 mph 62 % 0.00 in
06:45 49.6 °F 36.7 °F 30.21 in NNE 1.9 mph 3.5 mph 61 % 0.00 in
06:50 50.1 °F 37.2 °F 30.21 in NNE 1.5 mph 3.5 mph 61 % 0.00 in
06:55 50.6 °F 37.6 °F 30.22 in NNE 0.3 mph 2.3 mph 61 % 0.00 in
07:00 51.3 °F 37.4 °F 30.22 in NNE 3.1 mph 3.5 mph 59 % 0.00 in
07:05 51.7 °F 37.4 °F 30.22 in NNE 0.8 mph 2.3 mph 58 % 0.00 in
07:11 51.9 °F 37.6 °F 30.23 in NNE 0.5 mph 1.2 mph 58 % 0.00 in
07:16 52.0 °F 37.7 °F 30.23 in NNE 0.2 mph 1.2 mph 58 % 0.00 in
07:21 52.2 °F 37.9 °F 30.23 in Calm     58 % 0.00 in
07:26 52.6 °F 38.2 °F 30.23 in NNE 1.9 mph 3.5 mph 58 % 0.00 in
07:31 52.9 °F 37.2 °F 30.24 in NNE 1.7 mph 3.5 mph 55 % 0.00 in
07:36 53.3 °F 37.1 °F 30.24 in NNE 0.4 mph 1.2 mph 54 % 0.00 in
07:41 53.5 °F 35.3 °F 30.24 in NNE 0.2 mph 1.2 mph 50 % 0.00 in
07:46 53.8 °F 35.1 °F 30.24 in NNE 0.3 mph 2.3 mph 49 % 0.00 in
07:51 54.0 °F 34.2 °F 30.24 in NNE 0.1 mph   47 % 0.00 in
07:56 54.2 °F 34.9 °F 30.24 in NNE 1.5 mph 3.5 mph 48 % 0.00 in
08:02 54.6 °F 36.3 °F 30.24 in NNE 1.3 mph 4.0 mph 50 % 0.00 in
08:07 54.9 °F 34.5 °F 30.24 in NNE 0.8 mph 2.3 mph 46 % 0.00 in
08:12 55.4 °F 36.0 °F 30.24 in North 0.5 mph 2.3 mph 48 % 0.00 in
08:17 55.7 °F 34.1 °F 30.24 in ENE 0.7 mph 2.3 mph 44 % 0.00 in
08:22 55.8 °F 37.4 °F 30.24 in NE 0.1 mph 1.2 mph 50 % 0.00 in
08:27 55.9 °F 34.8 °F 30.24 in WNW 1.8 mph 3.5 mph 45 % 0.00 in
08:32 55.9 °F 33.7 °F 30.24 in NNE 0.1 mph 1.2 mph 43 % 0.00 in
08:37 55.9 °F 36.5 °F 30.25 in WNW 1.1 mph 3.0 mph 48 % 0.00 in
08:42 56.0 °F 36.0 °F 30.25 in North 3.8 mph 5.0 mph 47 % 0.00 in
08:47 56.0 °F 33.8 °F 30.25 in North 2.7 mph 3.0 mph 43 % 0.00 in
08:53 56.1 °F 34.5 °F 30.25 in North 2.0 mph 3.0 mph 44 % 0.00 in
08:58 56.4 °F 35.3 °F 30.25 in North 0.6 mph 2.3 mph 45 % 0.00 in
09:03 56.6 °F 32.5 °F 30.24 in NW 1.5 mph 3.5 mph 40 % 0.00 in
09:08 56.8 °F 32.7 °F 30.24 in NNW 1.1 mph 3.5 mph 40 % 0.00 in
09:13 57.1 °F 34.8 °F 30.24 in NNW 0.3 mph 3.5 mph 43 % 0.00 in
09:18 57.4 °F 33.9 °F 30.24 in NNW 0.7 mph 3.0 mph 41 % 0.00 in
09:23 57.7 °F 33.5 °F 30.24 in NW 1.9 mph 3.5 mph 40 % 0.00 in
09:28 58.1 °F 33.9 °F 30.24 in WNW 1.6 mph 3.5 mph 40 % 0.00 in
09:33 58.6 °F 35.0 °F 30.24 in NNE 0.4 mph 2.3 mph 41 % 0.00 in
09:38 58.9 °F 32.7 °F 30.24 in WNW 1.3 mph 3.5 mph 37 % 0.00 in
09:44 59.1 °F 33.5 °F 30.24 in NNE 0.7 mph 2.3 mph 38 % 0.00 in
09:49 59.6 °F 34.6 °F 30.24 in NNE 1.7 mph 3.5 mph 39 % 0.00 in
09:54 59.9 °F 34.9 °F 30.24 in Calm     39 % 0.00 in
09:59 60.6 °F 35.5 °F 30.24 in SW 1.6 mph 3.5 mph 39 % 0.00 in
10:04 61.1 °F 35.3 °F 30.24 in SW 1.0 mph 2.3 mph 38 % 0.00 in
10:09 61.8 °F 37.2 °F 30.24 in WNW 1.6 mph 3.5 mph 40 % 0.00 in
10:14 62.3 °F 37.0 °F 30.24 in NW 0.4 mph 2.3 mph 39 % 0.00 in
10:19 62.9 °F 36.2 °F 30.24 in NW 2.2 mph 3.5 mph 37 % 0.00 in
10:24 63.2 °F 36.5 °F 30.24 in NW 1.4 mph 3.0 mph 37 % 0.00 in
10:29 63.4 °F 36.7 °F 30.23 in SW 1.8 mph 3.5 mph 37 % 0.00 in
10:35 63.6 °F 35.4 °F 30.23 in SW 1.7 mph 3.5 mph 35 % 0.00 in
10:40 63.9 °F 35.7 °F 30.24 in SW 2.0 mph 3.5 mph 35 % 0.00 in
10:45 64.0 °F 35.0 °F 30.24 in WSW 5.2 mph 8.1 mph 34 % 0.00 in
10:50 64.0 °F 35.8 °F 30.23 in NW 3.1 mph 6.0 mph 35 % 0.00 in
10:55 64.3 °F 36.0 °F 30.23 in West 3.2 mph 4.6 mph 35 % 0.00 in
11:01 64.5 °F 38.3 °F 30.23 in West 1.3 mph 3.5 mph 38 % 0.00 in
11:06 64.9 °F 35.1 °F 30.23 in NW 1.7 mph 3.5 mph 33 % 0.00 in
11:11 65.8 °F 38.8 °F 30.23 in West 2.2 mph 4.0 mph 37 % 0.00 in
11:16 66.4 °F 36.4 °F 30.23 in WSW 2.8 mph 5.0 mph 33 % 0.00 in
11:21 67.0 °F 39.9 °F 30.22 in West 2.0 mph 3.5 mph 37 % 0.00 in
11:26 67.1 °F 35.4 °F 30.22 in WNW 5.3 mph 6.9 mph 31 % 0.00 in
11:31 67.5 °F 37.4 °F 30.22 in SSW 0.9 mph 3.5 mph 33 % 0.00 in
11:36 67.6 °F 35.0 °F 30.22 in SW 2.8 mph 7.0 mph 30 % 0.00 in
11:41 67.6 °F 33.3 °F 30.22 in West 2.8 mph 4.6 mph 28 % 0.00 in
11:46 67.7 °F 34.3 °F 30.22 in SW 4.5 mph 4.6 mph 29 % 0.00 in
11:52 68.0 °F 36.2 °F 30.22 in West 0.6 mph 5.8 mph 31 % 0.00 in
11:57 68.1 °F 32.8 °F 30.22 in SSW 3.3 mph 9.2 mph 27 % 0.00 in
12:02 68.1 °F 30.9 °F 30.21 in SW 2.9 mph 9.2 mph 25 % 0.00 in
12:07 68.3 °F 30.1 °F 30.21 in West 0.8 mph 8.1 mph 24 % 0.00 in
12:12 68.4 °F 31.2 °F 30.21 in WNW 3.7 mph 7.0 mph 25 % 0.00 in
12:17 68.2 °F 31.0 °F 30.21 in WSW 1.1 mph 3.5 mph 25 % 0.00 in
12:22 68.2 °F 31.0 °F 30.21 in SW 4.2 mph 5.0 mph 25 % 0.00 in
12:27 68.2 °F 32.0 °F 30.21 in SW 4.4 mph 6.9 mph 26 % 0.00 in
12:32 68.1 °F 30.9 °F 30.21 in WSW 7.6 mph 10.4 mph 25 % 0.00 in
12:37 68.0 °F 33.7 °F 30.21 in SW 4.3 mph 6.0 mph 28 % 0.00 in
12:43 68.0 °F 32.7 °F 30.21 in West 6.6 mph 10.4 mph 27 % 0.00 in
12:48 67.9 °F 33.6 °F 30.20 in WSW 5.6 mph 9.0 mph 28 % 0.00 in
12:53 67.5 °F 32.3 °F 30.20 in SW 8.1 mph 11.5 mph 27 % 0.00 in
12:58 67.2 °F 34.7 °F 30.20 in WSW 2.6 mph 5.0 mph 30 % 0.00 in
13:03 67.1 °F 32.9 °F 30.20 in West 5.5 mph 7.0 mph 28 % 0.00 in
13:08 67.0 °F 34.5 °F 30.19 in SW 7.8 mph 11.5 mph 30 % 0.00 in
13:13 67.0 °F 36.1 °F 30.19 in WSW 6.4 mph 11.5 mph 32 % 0.00 in
13:23 67.0 °F 35.3 °F 30.19 in SSW 4.1 mph 8.1 mph 31 % 0.00 in
13:28 67.1 °F 36.2 °F 30.18 in West 3.9 mph 6.0 mph 32 % 0.00 in
13:34 67.0 °F 33.7 °F 30.19 in SW 5.0 mph 9.2 mph 29 % 0.00 in
13:39 67.0 °F 34.5 °F 30.18 in WSW 3.0 mph 5.0 mph 30 % 0.00 in
13:44 66.9 °F 34.4 °F 30.18 in West 4.1 mph 6.9 mph 30 % 0.00 in
13:49 67.1 °F 35.4 °F 30.18 in WSW 3.6 mph 6.9 mph 31 % 0.00 in
13:54 67.4 °F 34.9 °F 30.18 in WSW 3.2 mph 5.8 mph 30 % 0.00 in
13:59 67.7 °F 36.8 °F 30.18 in SW 2.6 mph 4.6 mph 32 % 0.00 in
14:04 68.0 °F 34.5 °F 30.18 in WSW 2.2 mph 3.5 mph 29 % 0.00 in
14:14 68.3 °F 35.6 °F 30.17 in West 5.4 mph 8.0 mph 30 % 0.00 in
14:19 68.4 °F 37.4 °F 30.17 in SW 3.2 mph 6.9 mph 32 % 0.00 in
14:25 68.5 °F 35.0 °F 30.17 in West 1.4 mph 4.6 mph 29 % 0.00 in
14:30 68.7 °F 35.1 °F 30.17 in West 2.6 mph 10.4 mph 29 % 0.00 in
14:35 69.0 °F 36.3 °F 30.17 in WSW 5.2 mph 11.5 mph 30 % 0.00 in
14:40 69.3 °F 36.5 °F 30.17 in WSW 0.7 mph 6.9 mph 30 % 0.00 in
14:45 69.5 °F 34.9 °F 30.16 in SSW 3.7 mph 8.1 mph 28 % 0.00 in
14:50 69.8 °F 39.4 °F 30.16 in SW 2.9 mph 6.9 mph 33 % 0.00 in
14:55 69.7 °F 39.3 °F 30.16 in SSE 2.2 mph 4.6 mph 33 % 0.00 in
15:00 69.7 °F 39.3 °F 30.16 in WSW 8.0 mph 12.0 mph 33 % 0.00 in
15:05 69.3 °F 38.2 °F 30.16 in SW 3.8 mph 6.9 mph 32 % 0.00 in
15:10 69.1 °F 38.8 °F 30.16 in South 1.6 mph 4.6 mph 33 % 0.00 in
15:16 68.7 °F 39.9 °F 30.16 in SSW 2.3 mph 4.0 mph 35 % 0.00 in
15:21 68.3 °F 38.8 °F 30.16 in WSW 3.3 mph 6.9 mph 34 % 0.00 in
15:26 67.8 °F 39.1 °F 30.16 in SSW 5.5 mph 9.2 mph 35 % 0.00 in
15:36 66.7 °F 38.9 °F 30.15 in SW 3.0 mph 7.0 mph 36 % 0.00 in
15:41 66.2 °F 38.4 °F 30.15 in West 3.2 mph 9.2 mph 36 % 0.00 in
15:46 65.9 °F 38.2 °F 30.15 in South 3.0 mph 9.2 mph 36 % 0.00 in
15:51 66.0 °F 37.5 °F 30.15 in SW 5.1 mph 6.9 mph 35 % 0.00 in
15:54 65.9 °F 37.5 °F 30.14 in SW 6.1 mph 10.4 mph 35 % 0.00 in
15:59 65.9 °F 37.5 °F 30.14 in South 6.0 mph 8.1 mph 35 % 0.00 in
16:04 65.8 °F 38.1 °F 30.14 in SSW 3.4 mph 8.1 mph 36 % 0.00 in
16:10 65.9 °F 38.9 °F 30.14 in WSW 5.4 mph 8.1 mph 37 % 0.00 in
16:15 65.8 °F 36.6 °F 30.14 in South 5.6 mph 8.1 mph 34 % 0.00 in
16:20 65.5 °F 37.8 °F 30.14 in SSW 2.4 mph 7.0 mph 36 % 0.00 in
16:25 65.2 °F 36.8 °F 30.14 in WSW 2.4 mph 4.6 mph 35 % 0.00 in
16:30 64.9 °F 38.0 °F 30.14 in WSW 2.9 mph 4.6 mph 37 % 0.00 in
16:35 64.7 °F 38.5 °F 30.14 in SSW 1.2 mph 4.6 mph 38 % 0.00 in
16:40 64.5 °F 36.9 °F 30.14 in SSW 4.8 mph 8.1 mph 36 % 0.00 in
16:45 64.1 °F 36.6 °F 30.14 in SSW 6.7 mph 12.7 mph 36 % 0.00 in
16:55 63.3 °F 37.9 °F 30.13 in SSW 2.6 mph 8.0 mph 39 % 0.00 in
17:01 63.0 °F 37.0 °F 30.13 in SW 4.0 mph 10.4 mph 38 % 0.00 in
17:06 62.7 °F 37.4 °F 30.13 in WSW 5.1 mph 8.1 mph 39 % 0.00 in
17:11 62.5 °F 37.2 °F 30.13 in WSW 3.2 mph 5.8 mph 39 % 0.00 in
17:16 62.2 °F 37.6 °F 30.13 in SSW 5.3 mph 8.1 mph 40 % 0.00 in
17:21 62.1 °F 38.1 °F 30.13 in SW 1.2 mph 6.9 mph 41 % 0.00 in
17:26 62.0 °F 38.0 °F 30.13 in SSW 4.2 mph 8.0 mph 41 % 0.00 in
17:31 61.9 °F 38.5 °F 30.13 in SW 5.5 mph 11.5 mph 42 % 0.00 in
17:36 61.9 °F 38.5 °F 30.13 in WSW 5.6 mph 7.0 mph 42 % 0.00 in
17:41 61.8 °F 38.4 °F 30.13 in SW 3.3 mph 8.1 mph 42 % 0.00 in
17:46 61.8 °F 39.1 °F 30.13 in West 5.2 mph 6.9 mph 43 % 0.00 in
17:52 61.7 °F 38.4 °F 30.13 in SW 3.5 mph 9.2 mph 42 % 0.00 in
17:57 61.6 °F 39.5 °F 30.13 in West 3.3 mph 6.0 mph 44 % 0.00 in
18:02 61.5 °F 39.4 °F 30.13 in SW 4.2 mph 5.8 mph 44 % 0.00 in
18:07 61.4 °F 39.9 °F 30.13 in SW 4.9 mph 6.9 mph 45 % 0.00 in
18:12 61.4 °F 39.9 °F 30.12 in SW 4.9 mph 8.1 mph 45 % 0.00 in
18:22 61.2 °F 40.2 °F 30.12 in SW 3.9 mph 5.8 mph 46 % 0.00 in
18:27 61.1 °F 40.1 °F 30.12 in SW 3.5 mph 3.5 mph 46 % 0.00 in
18:32 61.0 °F 40.6 °F 30.12 in WSW 4.1 mph 7.0 mph 47 % 0.00 in
18:38 60.8 °F 40.4 °F 30.12 in SW 1.4 mph 5.8 mph 47 % 0.00 in
18:48 60.5 °F 40.7 °F 30.12 in WSW 5.2 mph 8.1 mph 48 % 0.00 in
18:53 60.4 °F 40.6 °F 30.12 in SSW 5.7 mph 8.1 mph 48 % 0.00 in
18:58 60.2 °F 41.0 °F 30.12 in WSW 3.6 mph 5.8 mph 49 % 0.00 in
19:08 60.0 °F 41.3 °F 30.12 in SW 2.8 mph 5.8 mph 50 % 0.00 in
19:13 59.8 °F 41.6 °F 30.12 in SW 3.2 mph 4.6 mph 51 % 0.00 in
19:18 59.6 °F 41.4 °F 30.12 in WSW 2.8 mph 6.9 mph 51 % 0.00 in
19:23 59.5 °F 41.9 °F 30.12 in SW 4.5 mph 6.9 mph 52 % 0.00 in
19:29 59.3 °F 41.7 °F 30.12 in WSW 4.0 mph 9.2 mph 52 % 0.00 in
19:34 59.1 °F 41.5 °F 30.12 in West 7.0 mph 10.4 mph 52 % 0.00 in
19:39 58.9 °F 41.3 °F 30.12 in SSW 2.9 mph 4.6 mph 52 % 0.00 in
19:44 58.8 °F 41.2 °F 30.12 in SW 0.6 mph 2.3 mph 52 % 0.00 in
19:49 58.7 °F 41.6 °F 30.12 in SW 3.3 mph 4.0 mph 53 % 0.00 in
19:54 58.6 °F 41.5 °F 30.12 in WSW 1.8 mph 6.9 mph 53 % 0.00 in
19:59 58.5 °F 41.4 °F 30.12 in SW 2.2 mph 3.5 mph 53 % 0.00 in
20:04 58.4 °F 41.8 °F 30.12 in WSW 4.7 mph 9.0 mph 54 % 0.00 in
20:09 58.2 °F 41.6 °F 30.12 in WSW 2.7 mph 6.9 mph 54 % 0.00 in
20:14 58.1 °F 41.5 °F 30.12 in SW 4.2 mph 4.6 mph 54 % 0.00 in
20:20 57.9 °F 41.3 °F 30.12 in SSW 6.4 mph 6.4 mph 54 % 0.00 in
20:25 57.8 °F 41.3 °F 30.12 in SW 1.9 mph 3.5 mph 54 % 0.00 in
20:30 57.7 °F 41.2 °F 30.12 in SSW 2.3 mph 8.1 mph 54 % 0.00 in
20:35 57.6 °F 41.1 °F 30.13 in SW 4.0 mph 6.9 mph 54 % 0.00 in
20:40 57.4 °F 40.4 °F 30.13 in SW 4.2 mph 6.9 mph 53 % 0.00 in
20:45 57.3 °F 40.8 °F 30.13 in SW 2.9 mph 3.5 mph 54 % 0.00 in
20:50 57.2 °F 40.7 °F 30.13 in SW 2.4 mph 9.2 mph 54 % 0.00 in
20:55 57.1 °F 40.6 °F 30.13 in SW 0.8 mph 3.5 mph 54 % 0.00 in
21:00 56.9 °F 40.9 °F 30.13 in SW 1.3 mph 2.3 mph 55 % 0.00 in
21:05 56.8 °F 40.8 °F 30.13 in WSW 0.6 mph 5.0 mph 55 % 0.00 in
21:11 56.7 °F 41.2 °F 30.13 in SW 0.3 mph 2.3 mph 56 % 0.00 in
21:16 56.5 °F 41.0 °F 30.14 in SW 1.0 mph 3.5 mph 56 % 0.00 in
21:21 56.4 °F 41.3 °F 30.13 in SW 1.5 mph 3.5 mph 57 % 0.00 in
21:31 56.2 °F 41.6 °F 30.14 in WSW 1.7 mph 4.0 mph 58 % 0.00 in
21:36 56.1 °F 41.5 °F 30.14 in Calm     58 % 0.00 in
21:41 56.0 °F 41.9 °F 30.14 in Calm     59 % 0.00 in
21:46 55.8 °F 41.7 °F 30.14 in Calm     59 % 0.00 in
21:51 55.6 °F 42.4 °F 30.14 in Calm     61 % 0.00 in
21:56 55.4 °F 42.6 °F 30.15 in Calm     62 % 0.00 in
22:02 55.2 °F 42.4 °F 30.14 in SW 1.1 mph 1.1 mph 62 % 0.00 in
22:12 54.7 °F 42.8 °F 30.14 in SW 2.6 mph 4.0 mph 64 % 0.00 in
22:17 54.5 °F 42.6 °F 30.14 in SW 1.1 mph 2.3 mph 64 % 0.00 in
22:22 54.3 °F 43.2 °F 30.14 in WSW 3.0 mph 4.6 mph 66 % 0.00 in
22:27 54.2 °F 43.1 °F 30.14 in WSW 1.6 mph 3.5 mph 66 % 0.00 in
22:32 54.1 °F 43.4 °F 30.14 in WSW 1.0 mph 3.5 mph 67 % 0.00 in
22:37 54.0 °F 43.3 °F 30.14 in WSW 2.1 mph 3.5 mph 67 % 0.00 in
22:42 54.0 °F 44.1 °F 30.14 in WSW 1.0 mph 2.3 mph 69 % 0.00 in
22:47 54.0 °F 44.1 °F 30.14 in SW 1.0 mph 1.2 mph 69 % 0.00 in
22:53 53.9 °F 44.0 °F 30.14 in WSW 2.8 mph 4.0 mph 69 % 0.00 in
22:58 53.9 °F 44.3 °F 30.14 in WSW 2.8 mph 4.6 mph 70 % 0.00 in
23:03 53.9 °F 44.3 °F 30.14 in WSW 0.8 mph 2.3 mph 70 % 0.00 in
23:08 53.8 °F 44.2 °F 30.14 in SW 1.6 mph 4.0 mph 70 % 0.00 in
23:13 53.7 °F 44.5 °F 30.14 in SW 1.6 mph 3.5 mph 71 % 0.00 in
23:18 53.6 °F 44.4 °F 30.14 in WSW 0.6 mph 1.2 mph 71 % 0.00 in
23:23 53.6 °F 44.8 °F 30.14 in SW 2.8 mph 3.5 mph 72 % 0.00 in
23:28 53.5 °F 44.7 °F 30.14 in SW 1.2 mph 3.5 mph 72 % 0.00 in
23:33 53.4 °F 44.6 °F 30.14 in SW 3.1 mph 3.5 mph 72 % 0.00 in
23:38 53.4 °F 45.0 °F 30.14 in WSW 3.1 mph 5.0 mph 73 % 0.00 in
23:44 53.3 °F 44.9 °F 30.14 in WSW 3.2 mph 5.0 mph 73 % 0.00 in
23:49 53.3 °F 45.2 °F 30.14 in SSW 1.2 mph 3.5 mph 74 % 0.00 in
23:54 53.3 °F 45.2 °F 30.14 in SW 1.0 mph 4.6 mph 74 % 0.00 in
23:59 53.2 °F 45.1 °F 30.14 in WSW 2.5 mph 3.5 mph 74 % 0.00 in
Crab Meadow Weather
Compliments of Weather Underground - 2.75 mb

Script developed by  Jim McMurry - jmcmurry@mwt.net Adapted for the template by  Wim van der Kuil - Leuven-Template.eu

Clouds: Partly sunny and partly cloudy indicate the same amount of cloud coverage - about 50 percent. Partly sunny is used during the daytime, and partly cloudy is used at night when there is no sun.